Ida, Louisiana
Current Conditions -  °F | °C
As of 1:53 PM on Saturday 25 Oct 2014 (Local Time) from KTXK Reporting Station
Clear Clear  
Wind Chill: 28°   Ceiling: Unl
Heat Index: 28°   Visibility: 10mi
Dew Point: 17°   Wind: 8mph
Humidity: 52%   Direction: 230°SW
Pressure: 30.1"   Gusts: NA
Location:  33°N, 93.89°W
Report Text: KTXK 251853Z 23007KT 10SM CLR 28/17 A3010 RMK AO2 SLP189 T02780172
Loading
Personal Weather Stations






























Interactive Weather Map
Tropical Storm Tracking
New forecast layout! Learn more

10-Day Weather Forecast

Advertisements
Track Severe Weather on mobile